createdAt,value
2023-01-01T00:02:24.932Z,12.37
2023-01-01T00:04:51.761Z,22.53
2023-01-01T00:07:18.650Z,20.23
2023-01-01T00:10:03.911Z,19.07
2023-01-01T00:12:32.517Z,16.40
2023-01-01T00:14:59.347Z,14.10
2023-01-01T00:17:26.188Z,12.17
2023-01-01T00:19:52.883Z,11.27
2023-01-01T00:25:06.934Z,13.77
2023-01-01T00:27:33.669Z,15.77
2023-01-01T00:30:00.389Z,12.40
2023-01-01T00:32:27.460Z,18.20
2023-01-01T00:34:54.141Z,18.07
2023-01-01T00:37:20.875Z,11.47
2023-01-01T00:39:47.640Z,13.50
2023-01-01T00:42:14.352Z,15.03
2023-01-01T00:44:41.133Z,14.50
2023-01-01T00:47:07.848Z,20.07
2023-01-01T00:49:34.510Z,16.33
2023-01-01T00:52:01.208Z,18.60
2023-01-01T00:54:29.165Z,16.97
2023-01-01T00:56:57.508Z,12.90
2023-01-01T00:59:28.657Z,14.37
2023-01-01T01:01:56.075Z,17.23
2023-01-01T01:04:23.265Z,16.40
2023-01-01T01:06:50.023Z,20.27
2023-01-01T01:09:17.063Z,16.37
2023-01-01T01:11:43.891Z,17.10
2023-01-01T01:14:10.783Z,20.33
2023-01-01T01:16:37.602Z,19.53
2023-01-01T01:19:06.035Z,15.27
2023-01-01T01:21:36.804Z,19.47
2023-01-01T01:24:04.109Z,22.43
2023-01-01T01:26:32.928Z,17.07
2023-01-01T01:29:00.683Z,17.60
2023-01-01T01:31:30.458Z,19.43
2023-01-01T01:33:57.715Z,21.42
2023-01-01T01:36:25.976Z,18.53
2023-01-01T01:38:53.310Z,20.00
2023-01-01T01:41:30.002Z,17.97
2023-01-01T01:44:02.712Z,17.77
2023-01-01T01:46:34.812Z,24.70
2023-01-01T01:49:06.322Z,23.60
2023-01-01T01:51:39.424Z,17.30
2023-01-01T01:54:10.952Z,13.67
2023-01-01T01:56:49.914Z,15.40
2023-01-01T01:59:19.091Z,22.93
2023-01-01T02:01:46.376Z,18.27
2023-01-01T02:04:13.308Z,23.50
2023-01-01T02:06:40.369Z,18.13
2023-01-01T02:09:08.840Z,13.33
2023-01-01T02:11:35.627Z,16.63
2023-01-01T02:14:03.515Z,19.27
2023-01-01T02:16:39.636Z,20.60
2023-01-01T02:19:26.360Z,17.30
2023-01-01T02:22:02.414Z,15.23
2023-01-01T02:24:41.160Z,20.10
2023-01-01T02:27:23.567Z,19.57
2023-01-01T02:30:10.695Z,21.57
2023-01-01T02:32:49.974Z,20.17
2023-01-01T02:35:35.427Z,19.60
2023-01-01T02:38:26.380Z,20.00
2023-01-01T02:40:59.708Z,19.20
2023-01-01T02:43:26.430Z,15.20
2023-01-01T02:45:54.080Z,17.77
2023-01-01T02:48:47.091Z,23.40
2023-01-01T02:51:22.820Z,17.33
2023-01-01T02:54:14.098Z,19.10
2023-01-01T02:56:45.680Z,19.60
2023-01-01T03:00:08.471Z,20.57
2023-01-01T03:02:51.244Z,15.83
2023-01-01T03:05:33.369Z,20.50
2023-01-01T03:08:14.658Z,21.70
2023-01-01T03:11:01.615Z,23.30
2023-01-01T03:13:44.751Z,21.17
2023-01-01T03:16:17.452Z,19.80
2023-01-01T03:19:13.543Z,18.97
2023-01-01T03:21:43.702Z,22.20
2023-01-01T03:24:30.933Z,21.43
2023-01-01T03:27:04.435Z,25.80
2023-01-01T03:29:34.907Z,23.60
2023-01-01T03:32:05.843Z,24.77
2023-01-01T03:34:37.299Z,29.50
2023-01-01T03:37:12.994Z,23.83
2023-01-01T03:39:47.993Z,28.10
2023-01-01T03:42:20.451Z,29.13
2023-01-01T03:45:04.240Z,24.33
2023-01-01T03:47:31.459Z,27.53
2023-01-01T03:49:59.738Z,30.23
2023-01-01T03:52:37.125Z,29.10
2023-01-01T03:55:12.602Z,31.07
2023-01-01T03:57:57.484Z,32.13
2023-01-01T04:00:28.279Z,40.50
2023-01-01T04:02:59.399Z,34.83
2023-01-01T04:05:27.842Z,36.83
2023-01-01T04:07:55.616Z,37.27
2023-01-01T04:10:24.447Z,45.20
2023-01-01T04:12:56.224Z,45.03
2023-01-01T04:15:25.787Z,37.07
2023-01-01T04:17:53.952Z,42.23
2023-01-01T04:20:21.531Z,46.57
2023-01-01T04:22:48.360Z,44.90
2023-01-01T04:25:17.437Z,47.10
2023-01-01T04:27:44.674Z,44.80
2023-01-01T04:30:13.607Z,39.77
2023-01-01T04:32:40.682Z,39.87
2023-01-01T04:35:08.943Z,38.67
2023-01-01T04:37:36.629Z,41.30
2023-01-01T04:40:04.551Z,47.97
2023-01-01T04:42:31.693Z,43.60
2023-01-01T04:44:58.380Z,48.17
2023-01-01T04:47:26.985Z,43.57
2023-01-01T04:49:54.829Z,43.53
2023-01-01T04:52:24.010Z,49.10
2023-01-01T04:54:50.660Z,41.77
2023-01-01T04:57:17.427Z,33.27
2023-01-01T04:59:44.221Z,40.17
2023-01-01T05:02:12.973Z,40.33
2023-01-01T05:04:39.794Z,36.10
2023-01-01T05:07:06.427Z,33.57
2023-01-01T05:09:33.127Z,35.27
2023-01-01T05:11:59.893Z,37.47
2023-01-01T05:14:26.572Z,39.93
2023-01-01T05:16:53.571Z,41.57
2023-01-01T05:19:20.272Z,39.57
2023-01-01T05:21:47.159Z,44.23
2023-01-01T05:24:14.121Z,42.47
2023-01-01T05:26:43.384Z,44.03
2023-01-01T05:29:16.067Z,45.97
2023-01-01T05:31:43.609Z,39.13
2023-01-01T05:34:10.447Z,42.10
2023-01-01T05:36:39.200Z,38.50
2023-01-01T05:39:12.085Z,41.17
2023-01-01T05:41:39.926Z,40.87
2023-01-01T05:44:11.222Z,39.83
2023-01-01T05:46:39.402Z,44.70
2023-01-01T05:49:06.200Z,33.97
2023-01-01T05:54:01.289Z,34.87
2023-01-01T05:56:29.607Z,33.87
2023-01-01T05:58:56.709Z,35.13
2023-01-01T06:01:26.720Z,32.50
2023-01-01T06:03:55.141Z,36.13
2023-01-01T06:06:25.186Z,35.30
2023-01-01T06:08:57.640Z,33.70
2023-01-01T06:11:24.713Z,34.83
2023-01-01T06:13:56.304Z,29.67
2023-01-01T06:16:23.525Z,33.23
2023-01-01T06:18:51.064Z,27.83
2023-01-01T06:21:20.135Z,28.20
2023-01-01T06:23:46.921Z,25.23
2023-01-01T06:26:25.578Z,29.87
2023-01-01T06:28:52.432Z,28.03
2023-01-01T06:31:21.366Z,24.77
2023-01-01T06:33:49.089Z,21.07
2023-01-01T06:36:18.729Z,19.70
2023-01-01T06:38:47.656Z,21.23
2023-01-01T06:41:17.095Z,18.33
2023-01-01T06:43:44.219Z,21.03
2023-01-01T06:46:24.379Z,15.27
2023-01-01T06:49:04.820Z,16.73
2023-01-01T06:51:34.307Z,15.07
2023-01-01T06:54:03.145Z,13.50
2023-01-01T06:56:30.913Z,19.03
2023-01-01T06:58:58.469Z,13.10
2023-01-01T07:01:28.386Z,19.17
2023-01-01T07:03:57.487Z,11.03
2023-01-01T07:06:25.735Z,10.45
2023-01-01T07:08:52.963Z,11.73
2023-01-01T07:11:20.268Z,11.43
2023-01-01T07:13:47.336Z,11.17
2023-01-01T07:16:14.463Z,11.70
2023-01-01T07:18:41.427Z,10.03
2023-01-01T07:21:29.143Z,12.47
2023-01-01T07:23:58.500Z,16.20
2023-01-01T07:26:30.073Z,11.70
2023-01-01T07:29:02.852Z,12.43
2023-01-01T07:31:33.420Z,14.70
2023-01-01T07:34:00.389Z,8.10
2023-01-01T07:36:27.292Z,11.40
2023-01-01T07:38:54.123Z,9.43
2023-01-01T07:41:20.900Z,12.87
2023-01-01T07:43:47.704Z,14.27
2023-01-01T07:46:22.066Z,12.27
2023-01-01T07:48:49.076Z,13.73
2023-01-01T07:51:15.829Z,10.40
2023-01-01T07:53:42.565Z,11.73
2023-01-01T07:56:09.538Z,15.50
2023-01-01T07:58:40.210Z,13.80
2023-01-01T08:01:09.651Z,13.07
2023-01-01T08:03:36.522Z,11.87
2023-01-01T08:06:11.842Z,13.13
2023-01-01T08:08:39.446Z,14.97
2023-01-01T08:11:06.252Z,13.20
2023-01-01T08:13:32.939Z,11.77
2023-01-01T08:15:59.762Z,8.93
2023-01-01T08:18:26.730Z,15.13
2023-01-01T08:20:54.350Z,10.43
2023-01-01T08:23:21.300Z,8.00
2023-01-01T08:25:48.219Z,11.40
2023-01-01T08:28:15.041Z,12.20
2023-01-01T08:30:41.837Z,10.27
2023-01-01T08:33:08.530Z,13.93
2023-01-01T08:35:40.628Z,13.57
2023-01-01T08:38:07.330Z,9.47
2023-01-01T08:40:34.273Z,16.23
2023-01-01T08:43:04.061Z,19.70
2023-01-01T08:45:30.720Z,12.43
2023-01-01T08:47:57.670Z,12.53
2023-01-01T08:50:24.449Z,14.43
2023-01-01T08:52:51.185Z,18.53
2023-01-01T08:55:18.028Z,9.50
2023-01-01T08:57:44.698Z,9.23
2023-01-01T09:00:13.616Z,15.60
2023-01-01T09:02:40.429Z,11.13
2023-01-01T09:05:07.837Z,19.40
2023-01-01T09:07:34.610Z,21.27
2023-01-01T09:10:01.589Z,10.10
2023-01-01T09:12:28.515Z,7.40
2023-01-01T09:14:55.189Z,12.90
2023-01-01T09:17:21.889Z,6.53
2023-01-01T09:19:48.553Z,7.53
2023-01-01T09:22:15.332Z,13.50
2023-01-01T09:24:42.115Z,9.43
2023-01-01T09:27:08.972Z,8.53
2023-01-01T09:29:35.756Z,7.30
2023-01-01T09:32:02.485Z,9.30
2023-01-01T09:34:29.261Z,8.77
2023-01-01T09:36:56.027Z,11.23
2023-01-01T09:39:22.715Z,8.80
2023-01-01T09:42:15.679Z,12.83
2023-01-01T09:45:05.116Z,5.70
2023-01-01T09:47:40.739Z,13.67
2023-01-01T09:50:13.937Z,10.37
2023-01-01T09:53:04.200Z,8.17
2023-01-01T09:55:37.756Z,10.27
2023-01-01T09:58:04.446Z,13.67
2023-01-01T10:00:34.762Z,8.90
2023-01-01T10:03:19.513Z,9.77
2023-01-01T10:06:22.838Z,11.17
2023-01-01T10:09:10.761Z,9.63
2023-01-01T10:11:55.847Z,7.73
2023-01-01T10:14:25.564Z,9.40
2023-01-01T10:16:57.827Z,13.87
2023-01-01T10:19:37.803Z,10.77
2023-01-01T10:22:11.267Z,13.43
2023-01-01T10:24:50.522Z,9.70
2023-01-01T10:27:24.207Z,11.70
2023-01-01T10:29:55.509Z,13.90
2023-01-01T10:32:30.810Z,14.43
2023-01-01T10:34:58.246Z,14.47
2023-01-01T10:37:28.413Z,14.53
2023-01-01T10:39:55.147Z,11.73
2023-01-01T10:42:21.896Z,15.67
2023-01-01T10:44:52.569Z,12.60
2023-01-01T10:47:28.760Z,12.53
2023-01-01T10:50:08.027Z,14.97
2023-01-01T10:52:41.389Z,13.17
2023-01-01T10:55:23.756Z,15.00
2023-01-01T10:57:50.526Z,12.80
2023-01-01T11:00:26.178Z,12.73
2023-01-01T11:03:30.176Z,13.57
2023-01-01T11:06:17.490Z,23.17
2023-01-01T11:08:50.504Z,10.80
2023-01-01T11:11:27.328Z,12.00
2023-01-01T11:13:58.250Z,13.13
2023-01-01T11:16:27.120Z,15.03
2023-01-01T11:19:02.295Z,15.03
2023-01-01T11:21:29.295Z,12.07
2023-01-01T11:24:20.287Z,18.27
2023-01-01T11:26:53.954Z,10.87
2023-01-01T11:29:29.043Z,15.23
2023-01-01T11:31:58.816Z,14.07
2023-01-01T11:34:25.426Z,14.60
2023-01-01T11:36:52.449Z,15.93
2023-01-01T11:39:26.948Z,18.93
2023-01-01T11:41:56.513Z,11.43
2023-01-01T11:44:45.579Z,16.60
2023-01-01T11:47:27.489Z,14.00
2023-01-01T11:49:56.696Z,16.07
2023-01-01T11:52:44.488Z,11.00
2023-01-01T11:55:32.949Z,12.37
2023-01-01T11:58:04.306Z,16.20
2023-01-01T12:00:34.966Z,16.70
2023-01-01T12:03:21.085Z,23.80
2023-01-01T12:05:55.057Z,14.60
2023-01-01T12:08:31.690Z,13.33
2023-01-01T12:11:19.885Z,12.23
2023-01-01T12:14:13.460Z,17.47
2023-01-01T12:17:15.243Z,19.63
2023-01-01T12:19:53.469Z,17.37
2023-01-01T12:22:20.277Z,17.53
2023-01-01T12:24:48.528Z,14.27
2023-01-01T12:27:18.366Z,19.17
2023-01-01T12:29:51.085Z,23.53
2023-01-01T12:32:26.570Z,15.87
2023-01-01T12:35:22.424Z,20.43
2023-01-01T12:37:55.493Z,20.70
2023-01-01T12:41:06.803Z,12.80
2023-01-01T12:43:53.718Z,16.47
2023-01-01T12:46:45.172Z,21.07
2023-01-01T12:49:50.498Z,19.27
2023-01-01T12:52:37.842Z,17.03
2023-01-01T12:55:23.124Z,20.70
2023-01-01T12:58:10.307Z,17.37
2023-01-01T13:00:43.372Z,14.27
2023-01-01T13:03:23.814Z,17.87
2023-01-01T13:05:53.936Z,16.40
2023-01-01T13:08:20.801Z,21.73
2023-01-01T13:10:53.353Z,15.67
2023-01-01T13:13:20.535Z,21.10
2023-01-01T13:15:50.261Z,20.23
2023-01-01T13:18:19.496Z,11.20
2023-01-01T13:20:58.453Z,17.90
2023-01-01T13:23:38.616Z,14.83
2023-01-01T13:26:17.635Z,14.17
2023-01-01T13:28:59.529Z,17.53
2023-01-01T13:31:38.589Z,19.77
2023-01-01T13:34:30.183Z,10.87
2023-01-01T13:37:15.531Z,17.67
2023-01-01T13:39:54.337Z,15.70
2023-01-01T13:43:02.313Z,13.40
2023-01-01T13:46:10.996Z,13.73
2023-01-01T13:48:42.773Z,14.90
2023-01-01T13:54:44.772Z,13.17
2023-01-01T13:57:23.580Z,11.63
2023-01-01T14:00:28.287Z,12.90
2023-01-01T14:03:00.605Z,11.90
2023-01-01T14:05:33.627Z,13.60
2023-01-01T14:08:00.440Z,22.10
2023-01-01T14:10:28.712Z,13.53
2023-01-01T14:13:15.584Z,12.90
2023-01-01T14:15:53.919Z,21.33
2023-01-01T14:18:32.271Z,17.90
2023-01-01T14:20:59.245Z,14.67
2023-01-01T14:23:39.089Z,14.53
2023-01-01T14:26:12.654Z,14.83
2023-01-01T14:28:40.276Z,14.63
2023-01-01T14:31:20.046Z,12.87
2023-01-01T14:33:47.057Z,14.60
2023-01-01T14:36:25.758Z,14.02
2023-01-01T14:38:54.723Z,14.57
2023-01-01T14:41:41.201Z,14.23
2023-01-01T14:44:14.283Z,10.93
2023-01-01T14:46:46.993Z,14.27
2023-01-01T14:49:22.373Z,14.17
2023-01-01T14:51:59.923Z,15.27
2023-01-01T14:54:36.971Z,15.93
2023-01-01T14:57:10.760Z,13.20
2023-01-01T14:59:46.569Z,16.17
2023-01-01T15:02:15.552Z,16.07
2023-01-01T15:04:43.206Z,14.67
2023-01-01T15:07:31.233Z,14.43
2023-01-01T15:10:01.278Z,14.53
2023-01-01T15:12:28.639Z,15.97
2023-01-01T15:14:56.509Z,11.10
2023-01-01T15:17:26.128Z,13.37
2023-01-01T15:20:23.729Z,20.73
2023-01-01T15:22:51.940Z,13.30
2023-01-01T15:25:19.765Z,5.83
2023-01-01T15:27:54.994Z,11.53
2023-01-01T15:30:28.665Z,17.07
2023-01-01T15:32:56.435Z,17.37
2023-01-01T15:35:32.710Z,14.47
2023-01-01T15:38:02.992Z,21.33
2023-01-01T15:40:33.742Z,13.23
2023-01-01T15:43:00.416Z,12.40
2023-01-01T15:45:38.844Z,17.87
2023-01-01T15:48:05.607Z,11.40
2023-01-01T15:51:00.251Z,23.17
2023-01-01T15:53:29.245Z,15.97
2023-01-01T15:56:05.777Z,18.23
2023-01-01T15:58:40.484Z,12.50
2023-01-01T16:01:11.320Z,20.03
2023-01-01T16:03:40.091Z,13.10
2023-01-01T16:06:07.563Z,13.17
2023-01-01T16:08:34.302Z,13.80
2023-01-01T16:11:01.214Z,10.20
2023-01-01T16:13:27.920Z,15.67
2023-01-01T16:16:00.103Z,10.40
2023-01-01T16:18:37.684Z,7.67
2023-01-01T16:21:05.463Z,21.10
2023-01-01T16:23:32.215Z,15.47
2023-01-01T16:25:58.871Z,12.57
2023-01-01T16:28:25.528Z,17.80
2023-01-01T16:30:52.388Z,15.23
2023-01-01T16:33:22.703Z,15.30
2023-01-01T16:35:49.508Z,20.53
2023-01-01T16:38:16.440Z,14.43
2023-01-01T16:40:43.188Z,13.03
2023-01-01T16:43:16.915Z,16.27
2023-01-01T16:45:44.490Z,14.30
2023-01-01T16:48:11.281Z,12.97
2023-01-01T16:50:37.978Z,17.93
2023-01-01T16:53:04.702Z,14.67
2023-01-01T16:55:31.526Z,16.80
2023-01-01T16:58:21.128Z,10.77
2023-01-01T17:00:45.240Z,15.53
2023-01-01T17:03:11.978Z,17.37
2023-01-01T17:05:43.835Z,11.67
2023-01-01T17:08:11.198Z,15.67
2023-01-01T17:10:37.837Z,21.03
2023-01-01T17:13:04.582Z,14.00
2023-01-01T17:15:32.408Z,17.80
2023-01-01T17:17:59.300Z,20.17
2023-01-01T17:20:27.375Z,11.93
2023-01-01T17:22:54.733Z,12.90
2023-01-01T17:25:22.017Z,20.77
2023-01-01T17:27:48.808Z,18.67
2023-01-01T17:30:15.564Z,13.47
2023-01-01T17:32:42.211Z,11.77
2023-01-01T17:35:09.447Z,15.90
2023-01-01T17:37:36.223Z,14.43
2023-01-01T17:40:02.959Z,12.97
2023-01-01T17:42:29.964Z,13.20
2023-01-01T17:44:56.768Z,10.77
2023-01-01T17:47:26.698Z,18.23
2023-01-01T17:49:56.112Z,12.47
2023-01-01T17:52:22.804Z,12.63
2023-01-01T17:54:49.666Z,13.13
2023-01-01T17:57:17.094Z,13.90
2023-01-01T17:59:43.805Z,16.07
2023-01-01T18:02:13.254Z,11.87
2023-01-01T18:04:40.780Z,15.77
2023-01-01T18:07:07.585Z,10.93
2023-01-01T18:09:34.435Z,16.77
2023-01-01T18:12:01.298Z,10.57
2023-01-01T18:14:28.040Z,9.87
2023-01-01T18:16:54.711Z,13.00
2023-01-01T18:19:21.591Z,11.43
2023-01-01T18:21:48.259Z,10.93
2023-01-01T18:24:15.808Z,12.77
2023-01-01T18:26:43.097Z,15.07
2023-01-01T18:29:09.807Z,13.67
2023-01-01T18:31:36.564Z,15.67
2023-01-01T18:34:04.370Z,14.43
2023-01-01T18:36:33.645Z,13.83
2023-01-01T18:39:06.857Z,17.83
2023-01-01T18:41:48.626Z,17.00
2023-01-01T18:44:25.649Z,14.00
2023-01-01T18:47:12.110Z,11.50
2023-01-01T18:49:39.769Z,13.83
2023-01-01T18:52:06.417Z,12.00
2023-01-01T18:54:34.095Z,12.90
2023-01-01T18:57:17.608Z,10.27
2023-01-01T18:59:44.323Z,15.23
2023-01-01T19:02:29.209Z,19.00
2023-01-01T19:05:06.520Z,14.77
2023-01-01T19:07:33.194Z,11.43
2023-01-01T19:10:00.424Z,15.47
2023-01-01T19:12:28.533Z,12.30
2023-01-01T19:14:55.272Z,11.60
2023-01-01T19:17:23.560Z,12.47
2023-01-01T19:19:52.542Z,17.17
2023-01-01T19:22:30.858Z,17.13
2023-01-01T19:24:57.656Z,15.53
2023-01-01T19:27:24.851Z,10.77
2023-01-01T19:29:52.708Z,11.17
2023-01-01T19:32:20.840Z,14.30
2023-01-01T19:34:47.655Z,13.60
2023-01-01T19:37:14.547Z,10.77
2023-01-01T19:39:41.455Z,12.20
2023-01-01T19:42:08.271Z,15.87
2023-01-01T19:44:36.711Z,13.60
2023-01-01T19:47:09.103Z,11.80
2023-01-01T19:49:35.910Z,13.03
2023-01-01T19:52:03.735Z,15.17
2023-01-01T19:54:30.515Z,9.73
2023-01-01T19:56:57.253Z,10.33
2023-01-01T19:59:27.786Z,13.13
2023-01-01T20:02:25.822Z,12.57
2023-01-01T20:04:44.588Z,19.10
2023-01-01T20:07:11.321Z,16.37
2023-01-01T20:09:38.080Z,9.90
2023-01-01T20:12:04.800Z,8.27
2023-01-01T20:14:31.499Z,14.50
2023-01-01T20:16:58.251Z,16.70
2023-01-01T20:19:24.902Z,12.53
2023-01-01T20:22:10.152Z,12.83
2023-01-01T20:24:39.118Z,13.00
2023-01-01T20:27:05.824Z,17.60
2023-01-01T20:29:32.543Z,12.27
2023-01-01T20:31:59.458Z,14.67
2023-01-01T20:34:26.919Z,12.13
2023-01-01T20:37:12.161Z,18.63
2023-01-01T20:39:39.012Z,11.93
2023-01-01T20:42:05.702Z,12.73
2023-01-01T20:44:32.456Z,11.30
2023-01-01T20:46:59.191Z,11.43
2023-01-01T20:49:25.879Z,11.43
2023-01-01T20:51:53.278Z,9.90
2023-01-01T20:54:21.653Z,16.53
2023-01-01T20:56:48.415Z,18.00
2023-01-01T20:59:35.332Z,13.00
2023-01-01T21:02:04.632Z,16.53
2023-01-01T21:04:31.660Z,20.57
2023-01-01T21:06:58.440Z,13.57
2023-01-01T21:09:25.173Z,14.20
2023-01-01T21:11:51.921Z,13.57
2023-01-01T21:14:21.380Z,13.43
2023-01-01T21:16:48.129Z,15.00
2023-01-01T21:19:15.165Z,10.10
2023-01-01T21:21:53.067Z,12.03
2023-01-01T21:24:32.841Z,14.17
2023-01-01T21:27:24.430Z,17.43
2023-01-01T21:29:57.463Z,10.80
2023-01-01T21:32:37.914Z,17.17
2023-01-01T21:35:14.874Z,13.50
2023-01-01T21:37:47.516Z,18.57
2023-01-01T21:40:29.419Z,15.47
2023-01-01T21:43:03.512Z,11.03
2023-01-01T21:45:42.664Z,14.07
2023-01-01T21:48:37.796Z,17.07
2023-01-01T21:51:19.792Z,14.87
2023-01-01T21:53:46.714Z,15.43
2023-01-01T21:56:31.203Z,19.30
2023-01-01T21:59:26.435Z,12.47
2023-01-01T22:01:59.880Z,16.40
2023-01-01T22:04:49.706Z,14.70
2023-01-01T22:10:35.856Z,13.10
2023-01-01T22:13:03.127Z,9.00
2023-01-01T22:15:40.345Z,12.80
2023-01-01T22:18:22.946Z,13.67
2023-01-01T22:20:50.576Z,15.83
2023-01-01T22:23:20.408Z,18.23
2023-01-01T22:25:47.744Z,15.40
2023-01-01T22:28:19.803Z,10.50
2023-01-01T22:30:47.073Z,15.47
2023-01-01T22:33:22.546Z,19.97
2023-01-01T22:35:49.214Z,14.07
2023-01-01T22:38:21.518Z,12.70
2023-01-01T22:40:51.465Z,12.57
2023-01-01T22:43:25.463Z,10.80
2023-01-01T22:45:52.126Z,12.13
2023-01-01T22:48:34.781Z,13.33
2023-01-01T22:51:07.287Z,14.97
2023-01-01T22:53:33.985Z,15.13
2023-01-01T22:56:00.663Z,11.97
2023-01-01T22:58:27.304Z,11.50
2023-01-01T23:00:54.017Z,10.57
2023-01-01T23:03:20.716Z,12.10
2023-01-01T23:05:47.615Z,11.80
2023-01-01T23:08:14.414Z,13.90
2023-01-01T23:10:41.126Z,15.20
2023-01-01T23:13:27.632Z,10.83
2023-01-01T23:16:02.440Z,17.93
2023-01-01T23:18:35.474Z,14.37
2023-01-01T23:21:05.287Z,15.67
2023-01-01T23:23:32.433Z,13.67
2023-01-01T23:26:00.256Z,13.60
2023-01-01T23:28:30.227Z,10.90
2023-01-01T23:30:59.790Z,8.90
2023-01-01T23:33:27.589Z,10.57
2023-01-01T23:35:54.382Z,14.17
2023-01-01T23:38:21.663Z,6.90
2023-01-01T23:40:48.390Z,12.33
2023-01-01T23:43:15.079Z,7.83
2023-01-01T23:45:41.852Z,8.93
2023-01-01T23:48:09.035Z,9.73
2023-01-01T23:50:35.929Z,11.03
2023-01-01T23:53:02.648Z,15.03
2023-01-01T23:55:29.387Z,16.60
2023-01-01T23:57:56.187Z,11.80
